Time;durP1;ratioP1;P1;durP2;ratioP2;P2;SDS_P1;SDS_P2;PMS_P1;PMS_P2;Temp;Humidity;BMP_temperature;BMP_pressure;BME280_temperature;BME280_humidity;BME280_pressure;Samples;Min_cycle;Max_cycle;Signal;HPM_P1;HPM_P2
2023/12/14 00:00:20;;;;;;;64.10;17.67;;;8.00;99.90;;;;;;5047593;28;20855;-72
2023/12/14 00:02:45;;;;;;;76.63;19.42;;;8.00;99.90;;;;;;5047822;28;20032;-72
2023/12/14 00:05:11;;;;;;;58.38;17.33;;;8.00;99.90;;;;;;5047635;28;20025;-72
2023/12/14 00:07:37;;;;;;;62.63;17.35;;;8.00;99.90;;;;;;5046663;28;20023;-73
2023/12/14 00:10:04;;;;;;;62.33;18.80;;;7.90;99.90;;;;;;5047365;28;20025;-73
2023/12/14 00:12:30;;;;;;;48.88;17.50;;;7.90;99.90;;;;;;5047720;28;20028;-73
2023/12/14 00:14:56;;;;;;;58.28;18.42;;;7.90;99.90;;;;;;5047268;28;20028;-72
2023/12/14 00:17:22;;;;;;;53.05;17.02;;;7.90;99.90;;;;;;5047700;28;20025;-72
2023/12/14 00:19:47;;;;;;;66.32;18.45;;;7.80;99.90;;;;;;5047267;28;20375;-72
2023/12/14 00:22:13;;;;;;;63.58;18.63;;;7.80;99.90;;;;;;5046245;28;20020;-72
2023/12/14 00:24:38;;;;;;;62.55;19.25;;;7.80;99.90;;;;;;5047125;28;20024;-72
2023/12/14 00:27:04;;;;;;;59.95;17.88;;;7.80;99.90;;;;;;5047461;28;20786;-72
2023/12/14 00:29:30;;;;;;;60.95;19.27;;;7.80;99.90;;;;;;5045909;28;20048;-72
2023/12/14 00:31:56;;;;;;;60.22;16.73;;;7.70;99.90;;;;;;5045900;28;20528;-72
2023/12/14 00:34:22;;;;;;;80.05;20.23;;;7.70;99.90;;;;;;5046996;28;20024;-72
2023/12/14 00:36:47;;;;;;;72.88;18.83;;;7.60;99.90;;;;;;5047108;28;20118;-72
2023/12/14 00:39:13;;;;;;;71.53;19.42;;;7.60;99.90;;;;;;5046706;28;20136;-72
2023/12/14 00:41:39;;;;;;;66.25;19.83;;;7.60;99.90;;;;;;5046942;28;20831;-72
2023/12/14 00:44:04;;;;;;;65.55;20.15;;;7.60;99.90;;;;;;5047082;28;20021;-72
2023/12/14 00:46:30;;;;;;;73.93;19.35;;;7.60;99.90;;;;;;5047255;28;20017;-72
2023/12/14 00:48:56;;;;;;;68.25;18.88;;;7.50;99.90;;;;;;5046775;28;20380;-72
2023/12/14 00:51:21;;;;;;;72.90;20.00;;;7.60;99.90;;;;;;5045374;28;20028;-72
2023/12/14 00:53:47;;;;;;;71.38;19.10;;;7.60;99.90;;;;;;5046772;28;20056;-72
2023/12/14 00:56:13;;;;;;;60.42;18.25;;;7.50;99.90;;;;;;5047009;28;20028;-72
2023/12/14 00:58:38;;;;;;;57.88;18.17;;;7.50;99.90;;;;;;5046872;28;20390;-71
2023/12/14 01:01:04;;;;;;;62.72;18.63;;;7.50;99.90;;;;;;5046422;28;20889;-72
2023/12/14 01:03:30;;;;;;;52.72;17.17;;;7.50;99.90;;;;;;5047040;28;20017;-72
2023/12/14 01:05:55;;;;;;;63.92;19.48;;;7.50;99.90;;;;;;5046367;28;20020;-72
2023/12/14 01:08:21;;;;;;;57.17;17.83;;;7.50;99.90;;;;;;5047000;28;20025;-72
2023/12/14 01:10:47;;;;;;;49.85;17.27;;;7.50;99.90;;;;;;5046234;28;20040;-72
2023/12/14 01:13:12;;;;;;;59.63;18.27;;;7.50;99.90;;;;;;5046712;28;20107;-72
2023/12/14 01:15:38;;;;;;;86.95;21.15;;;7.50;99.90;;;;;;5046357;28;20036;-72
2023/12/14 01:18:04;;;;;;;76.72;19.95;;;7.50;99.90;;;;;;5045339;28;20029;-72
2023/12/14 01:20:29;;;;;;;71.40;20.17;;;7.50;99.90;;;;;;5046380;28;20036;-73
2023/12/14 01:22:55;;;;;;;67.95;19.85;;;7.50;99.90;;;;;;5046581;28;20049;-72
2023/12/14 01:25:21;;;;;;;55.47;19.45;;;7.50;99.90;;;;;;5046339;28;20035;-73
2023/12/14 01:27:46;;;;;;;55.00;18.23;;;7.50;99.90;;;;;;5046768;28;20087;-72
2023/12/14 01:30:12;;;;;;;49.65;18.05;;;7.50;99.90;;;;;;5046215;28;20013;-72
2023/12/14 01:32:38;;;;;;;54.70;19.10;;;7.40;99.90;;;;;;5046397;28;20033;-72
2023/12/14 01:35:04;;;;;;;60.38;18.50;;;7.40;99.90;;;;;;5044840;28;20044;-72
2023/12/14 01:37:30;;;;;;;42.13;16.05;;;7.40;99.90;;;;;;5045125;28;20063;-72
2023/12/14 01:39:55;;;;;;;46.15;16.42;;;7.40;99.90;;;;;;5045798;28;20021;-73
2023/12/14 01:42:21;;;;;;;51.63;16.45;;;7.40;99.90;;;;;;5046526;28;20029;-72
2023/12/14 01:44:47;;;;;;;57.13;17.95;;;7.40;99.90;;;;;;5046057;28;20029;-72
2023/12/14 01:47:12;;;;;;;61.03;19.13;;;7.40;99.90;;;;;;5046590;28;20079;-72
2023/12/14 01:49:38;;;;;;;46.80;16.92;;;7.40;99.90;;;;;;5045724;28;20025;-71
2023/12/14 01:52:05;;;;;;;48.10;17.30;;;7.30;99.90;;;;;;5048239;28;20025;-72
2023/12/14 01:54:30;;;;;;;55.85;17.55;;;7.30;99.90;;;;;;5048626;28;20079;-72
2023/12/14 01:56:56;;;;;;;48.22;17.13;;;7.30;99.90;;;;;;5050071;28;20020;-72
2023/12/14 01:59:22;;;;;;;52.58;16.85;;;7.30;99.90;;;;;;5050129;28;20031;-72
2023/12/14 02:01:55;;;;;;;51.45;17.73;;;7.30;99.90;;;;;;5050254;28;20025;-71
2023/12/14 02:04:22;;;;;;;55.08;18.73;;;7.30;99.90;;;;;;5050168;28;20386;-73
2023/12/14 02:06:47;;;;;;;54.17;17.30;;;7.30;99.90;;;;;;5050168;28;20017;-71
2023/12/14 02:09:13;;;;;;;55.38;18.38;;;7.30;99.90;;;;;;5048528;28;20032;-72
2023/12/14 02:11:39;;;;;;;56.78;18.38;;;7.30;99.90;;;;;;5048496;28;20024;-72
2023/12/14 02:14:06;;;;;;;62.58;19.55;;;7.30;99.90;;;;;;5049758;28;20029;-73
2023/12/14 02:16:32;;;;;;;48.55;17.73;;;7.30;99.90;;;;;;5049911;28;20017;-72
2023/12/14 02:18:58;;;;;;;52.92;18.50;;;7.20;99.90;;;;;;5050005;28;20496;-72
2023/12/14 02:21:23;;;;;;;55.40;19.83;;;7.30;99.90;;;;;;5049775;28;20075;-72
2023/12/14 02:23:49;;;;;;;65.20;20.52;;;7.20;99.90;;;;;;5049661;28;20488;-72
2023/12/14 02:26:14;;;;;;;47.58;18.67;;;7.30;99.90;;;;;;5049367;28;20382;-72
2023/12/14 02:28:40;;;;;;;71.53;20.25;;;7.20;99.90;;;;;;5049581;28;20056;-72
2023/12/14 02:31:06;;;;;;;57.83;18.40;;;7.20;99.90;;;;;;5048929;28;20033;-72
2023/12/14 02:33:32;;;;;;;41.78;16.50;;;7.20;99.90;;;;;;5050698;28;20488;-72
2023/12/14 02:35:58;;;;;;;60.97;19.10;;;7.20;99.90;;;;;;5051177;28;20044;-71
2023/12/14 02:38:23;;;;;;;46.35;18.38;;;7.20;99.90;;;;;;5051661;28;20021;-72
2023/12/14 02:40:52;;;;;;;47.83;18.50;;;7.20;99.90;;;;;;5049075;28;20074;-72
2023/12/14 02:43:18;;;;;;;53.08;18.27;;;7.20;99.90;;;;;;5050069;28;20021;-73
2023/12/14 02:45:45;;;;;;;57.58;18.92;;;7.20;99.90;;;;;;5049236;28;20501;-72
2023/12/14 02:48:10;;;;;;;56.22;19.08;;;7.20;99.90;;;;;;5050306;28;20037;-72
2023/12/14 02:50:36;;;;;;;56.88;19.13;;;7.20;99.90;;;;;;5049501;28;20135;-72
2023/12/14 02:53:02;;;;;;;53.13;20.02;;;7.20;99.90;;;;;;5049270;28;20390;-72
2023/12/14 02:55:27;;;;;;;59.78;18.15;;;7.20;99.90;;;;;;5049325;28;20033;-72
2023/12/14 02:57:53;;;;;;;46.08;17.83;;;7.20;99.90;;;;;;5049049;28;20036;-72
2023/12/14 03:00:19;;;;;;;54.55;19.08;;;7.20;99.90;;;;;;5047492;28;20032;-72
2023/12/14 03:02:45;;;;;;;52.17;18.67;;;7.10;99.90;;;;;;5048913;28;20043;-72
2023/12/14 03:05:10;;;;;;;44.20;17.75;;;7.10;99.90;;;;;;5049034;28;20040;-72
2023/12/14 03:07:36;;;;;;;48.15;17.77;;;7.10;99.90;;;;;;5049144;28;20021;-72
2023/12/14 03:10:03;;;;;;;53.88;17.48;;;7.10;99.90;;;;;;5048889;28;20031;-71
2023/12/14 03:12:29;;;;;;;53.85;17.80;;;7.10;99.90;;;;;;5049186;28;20025;-72
2023/12/14 03:14:55;;;;;;;46.35;16.02;;;7.10;99.90;;;;;;5048500;28;20830;-72
2023/12/14 03:17:20;;;;;;;47.05;17.35;;;7.10;99.90;;;;;;5049155;28;20035;-72
2023/12/14 03:19:49;;;;;;;58.60;19.25;;;7.10;99.90;;;;;;5048369;28;20481;-72
2023/12/14 03:22:14;;;;;;;57.83;18.85;;;7.10;99.90;;;;;;5048782;28;20013;-72
2023/12/14 03:24:40;;;;;;;44.38;17.25;;;7.00;99.90;;;;;;5048461;28;20096;-72
2023/12/14 03:27:06;;;;;;;50.20;18.30;;;7.10;99.90;;;;;;5034806;28;20043;-72
2023/12/14 03:29:31;;;;;;;39.65;15.50;;;7.10;99.90;;;;;;5048386;28;20439;-72
2023/12/14 03:31:57;;;;;;;53.28;17.75;;;7.10;99.90;;;;;;5048483;28;20017;-72
2023/12/14 03:34:24;;;;;;;55.33;19.05;;;7.10;99.90;;;;;;5048594;28;20094;-72
2023/12/14 03:36:50;;;;;;;45.67;17.65;;;7.00;99.90;;;;;;5048024;28;20128;-72
2023/12/14 03:39:18;;;;;;;53.33;19.13;;;7.00;99.90;;;;;;5048357;28;20033;-72
2023/12/14 03:41:45;;;;;;;40.40;16.33;;;7.10;99.90;;;;;;5048314;28;20021;-72
2023/12/14 03:44:10;;;;;;;43.92;17.95;;;7.00;99.90;;;;;;5048436;28;20399;-72
2023/12/14 03:46:36;;;;;;;44.58;16.75;;;7.00;99.90;;;;;;5046523;28;20180;-72
2023/12/14 03:49:02;;;;;;;44.67;17.25;;;7.00;99.90;;;;;;5048272;28;20028;-72
2023/12/14 03:51:28;;;;;;;41.63;16.60;;;7.00;99.90;;;;;;5047933;28;20040;-72
2023/12/14 03:53:54;;;;;;;45.60;17.10;;;7.00;99.90;;;;;;5048392;28;20192;-72
2023/12/14 03:56:20;;;;;;;36.97;15.70;;;7.00;99.90;;;;;;5047682;28;20505;-72
2023/12/14 03:58:45;;;;;;;39.83;15.82;;;7.00;99.90;;;;;;5046421;28;20039;-73
2023/12/14 04:01:21;;;;;;;38.05;17.08;;;7.00;99.90;;;;;;5047637;28;20033;-73
2023/12/14 04:03:47;;;;;;;46.97;17.00;;;7.00;99.90;;;;;;5046837;28;20105;-73
2023/12/14 04:06:13;;;;;;;38.38;16.65;;;6.90;99.90;;;;;;5047716;28;20119;-73
2023/12/14 04:08:40;;;;;;;40.60;16.92;;;7.00;99.90;;;;;;5048614;28;20025;-72
2023/12/14 04:11:05;;;;;;;40.85;16.00;;;7.00;99.90;;;;;;5047482;28;20040;-72
2023/12/14 04:13:31;;;;;;;43.28;16.77;;;6.90;99.90;;;;;;5047812;28;20033;-72
2023/12/14 04:15:57;;;;;;;48.88;17.55;;;7.00;99.90;;;;;;5047033;28;20028;-72
2023/12/14 04:18:23;;;;;;;34.22;16.08;;;7.00;99.90;;;;;;5047640;28;20113;-72
2023/12/14 04:20:49;;;;;;;37.22;16.60;;;7.00;99.90;;;;;;5047307;28;20035;-72
2023/12/14 04:23:14;;;;;;;46.83;17.02;;;6.90;99.90;;;;;;5047677;28;20442;-72
2023/12/14 04:25:40;;;;;;;39.58;16.38;;;6.90;99.90;;;;;;5047207;28;20238;-72
2023/12/14 04:28:05;;;;;;;41.10;16.98;;;6.90;99.90;;;;;;5047972;28;20021;-72
2023/12/14 04:30:31;;;;;;;35.03;15.10;;;6.90;99.90;;;;;;5047129;28;20059;-72
2023/12/14 04:32:57;;;;;;;32.97;16.02;;;6.90;99.90;;;;;;5047353;28;20082;-72
2023/12/14 04:35:22;;;;;;;35.65;15.95;;;6.90;99.90;;;;;;5046961;28;20056;-72
2023/12/14 04:37:48;;;;;;;48.35;18.17;;;6.90;99.90;;;;;;5045732;28;20056;-73
2023/12/14 04:40:14;;;;;;;39.00;16.90;;;6.90;99.90;;;;;;5046975;28;20039;-72
2023/12/14 04:42:39;;;;;;;37.60;16.67;;;6.90;99.90;;;;;;5047190;28;20024;-73
2023/12/14 04:45:06;;;;;;;37.92;16.77;;;6.90;99.90;;;;;;5046976;28;20029;-72
2023/12/14 04:47:31;;;;;;;39.05;16.77;;;6.90;99.90;;;;;;5043462;28;20512;-73
2023/12/14 04:49:57;;;;;;;49.83;17.92;;;6.80;99.90;;;;;;5046771;28;20029;-72
2023/12/14 04:52:23;;;;;;;40.30;16.83;;;6.80;99.90;;;;;;5046931;28;20029;-73
2023/12/14 04:54:48;;;;;;;52.80;18.35;;;6.90;99.90;;;;;;5046785;28;20069;-72
2023/12/14 04:57:14;;;;;;;48.53;18.58;;;6.80;99.90;;;;;;5047146;28;20032;-73
2023/12/14 04:59:42;;;;;;;45.40;18.20;;;6.90;99.90;;;;;;5047025;28;20029;-72
2023/12/14 05:02:07;;;;;;;41.03;17.48;;;6.80;99.90;;;;;;5046835;28;20506;-72
2023/12/14 05:04:33;;;;;;;45.65;18.20;;;6.80;99.90;;;;;;5046901;28;20029;-73
2023/12/14 05:06:59;;;;;;;47.05;18.45;;;6.90;99.90;;;;;;5046533;28;20032;-73
2023/12/14 05:09:24;;;;;;;44.78;18.38;;;6.90;99.90;;;;;;5046919;28;20824;-72
2023/12/14 05:11:50;;;;;;;40.53;17.88;;;6.80;99.90;;;;;;5046637;28;20142;-72
2023/12/14 05:14:15;;;;;;;47.33;19.15;;;6.90;99.90;;;;;;5046800;28;20386;-72
2023/12/14 05:16:41;;;;;;;48.72;18.25;;;6.90;99.90;;;;;;5046424;28;20042;-73
2023/12/14 05:19:07;;;;;;;45.85;18.10;;;6.90;99.90;;;;;;5045519;28;20111;-72
2023/12/14 05:21:32;;;;;;;64.25;19.80;;;6.90;99.90;;;;;;5044911;28;20479;-72
2023/12/14 05:23:58;;;;;;;48.00;17.67;;;6.80;99.90;;;;;;5047046;28;20017;-72
2023/12/14 05:26:24;;;;;;;40.90;16.15;;;6.90;99.90;;;;;;5046374;28;20033;-72
2023/12/14 05:28:50;;;;;;;51.13;18.15;;;6.80;99.90;;;;;;5046663;28;20079;-72
2023/12/14 05:31:16;;;;;;;36.00;16.13;;;6.80;99.90;;;;;;5046392;28;20474;-72
2023/12/14 05:33:41;;;;;;;42.58;17.33;;;6.80;99.90;;;;;;5046473;28;20028;-72
2023/12/14 05:36:10;;;;;;;48.97;17.77;;;6.80;99.90;;;;;;5044648;28;20056;-72
2023/12/14 05:38:38;;;;;;;53.95;17.40;;;6.80;99.90;;;;;;5046475;28;20055;-72
2023/12/14 05:41:03;;;;;;;38.42;15.38;;;6.80;99.90;;;;;;5046467;28;20048;-72
2023/12/14 05:43:29;;;;;;;49.65;17.20;;;6.80;99.90;;;;;;5046537;28;20458;-72
2023/12/14 05:45:54;;;;;;;41.67;17.13;;;6.80;99.90;;;;;;5046057;28;20478;-72
2023/12/14 05:48:20;;;;;;;43.08;16.33;;;6.80;99.90;;;;;;5046407;28;20032;-71
2023/12/14 05:50:46;;;;;;;39.90;15.80;;;6.80;99.90;;;;;;5045858;28;20030;-72
2023/12/14 05:53:11;;;;;;;48.70;17.08;;;6.80;99.90;;;;;;5046599;28;20531;-73
2023/12/14 05:55:39;;;;;;;47.13;17.55;;;6.80;99.90;;;;;;5045930;28;20049;-72
2023/12/14 05:58:05;;;;;;;30.92;14.60;;;6.80;99.90;;;;;;5046424;28;20044;-72
2023/12/14 06:00:31;;;;;;;33.53;15.45;;;6.80;99.90;;;;;;5045859;28;20060;-72
2023/12/14 06:02:57;;;;;;;44.13;16.08;;;6.80;99.90;;;;;;5046281;28;20561;-72
2023/12/14 06:05:23;;;;;;;33.53;14.50;;;6.80;99.90;;;;;;5045832;28;20109;-72
2023/12/14 06:07:48;;;;;;;34.42;13.43;;;6.80;99.90;;;;;;5046522;28;20056;-72
2023/12/14 06:10:14;;;;;;;43.05;14.93;;;6.70;99.90;;;;;;5046155;28;20017;-72
2023/12/14 06:12:40;;;;;;;37.33;14.68;;;6.70;99.90;;;;;;5044715;28;20512;-72
2023/12/14 06:15:08;;;;;;;40.58;14.43;;;6.70;99.90;;;;;;5045089;28;20017;-70
2023/12/14 06:17:33;;;;;;;39.80;15.27;;;6.70;99.90;;;;;;5046686;28;20029;-72
2023/12/14 06:19:59;;;;;;;37.53;14.52;;;6.70;99.90;;;;;;5043603;28;20431;-72
2023/12/14 06:22:26;;;;;;;35.90;14.38;;;6.70;99.90;;;;;;5045912;28;20036;-73
2023/12/14 06:24:52;;;;;;;31.75;13.70;;;6.70;99.90;;;;;;5045974;28;20033;-72
2023/12/14 06:27:17;;;;;;;37.35;13.63;;;6.70;99.90;;;;;;5046151;28;20074;-72
2023/12/14 06:29:43;;;;;;;28.98;12.38;;;6.70;99.90;;;;;;5045790;28;20033;-72
2023/12/14 06:32:09;;;;;;;38.60;13.80;;;6.70;99.90;;;;;;5045617;28;20017;-72
2023/12/14 06:34:36;;;;;;;33.53;13.25;;;6.70;99.90;;;;;;5045775;28;20036;-72
2023/12/14 06:37:02;;;;;;;31.98;12.85;;;6.70;99.90;;;;;;5045620;28;20091;-72
2023/12/14 06:39:28;;;;;;;27.45;12.82;;;6.70;99.90;;;;;;5048075;28;20028;-73
2023/12/14 06:41:54;;;;;;;38.28;13.75;;;6.70;99.90;;;;;;5048983;28;20029;-72
2023/12/14 06:44:19;;;;;;;31.45;12.35;;;6.70;99.90;;;;;;5049461;28;20021;-72
2023/12/14 06:46:45;;;;;;;32.28;12.95;;;6.70;99.90;;;;;;5048108;28;20502;-72
2023/12/14 06:49:11;;;;;;;29.55;11.57;;;6.70;99.90;;;;;;5049488;28;20470;-72
2023/12/14 06:51:36;;;;;;;39.40;12.88;;;6.60;99.90;;;;;;5048900;28;20025;-72
2023/12/14 06:54:02;;;;;;;35.88;12.85;;;6.70;99.90;;;;;;5042700;28;20029;-73
2023/12/14 06:56:28;;;;;;;37.85;13.45;;;6.60;99.90;;;;;;5044357;28;20040;-72
2023/12/14 06:58:53;;;;;;;36.30;12.60;;;6.60;99.90;;;;;;5041351;28;20050;-72
2023/12/14 07:01:19;;;;;;;30.17;12.20;;;6.60;99.90;;;;;;5046385;28;20025;-72
2023/12/14 07:03:45;;;;;;;32.63;11.80;;;6.60;99.90;;;;;;5043369;28;20032;-72
2023/12/14 07:06:15;;;;;;;28.40;11.30;;;6.60;99.90;;;;;;5044239;28;20074;-72
2023/12/14 07:08:41;;;;;;;30.60;12.13;;;6.60;99.90;;;;;;5044684;28;20025;-73
2023/12/14 07:11:10;;;;;;;33.63;11.68;;;6.60;99.90;;;;;;5048476;28;20025;-72
2023/12/14 07:13:36;;;;;;;26.30;10.85;;;6.60;99.90;;;;;;5034441;28;20025;-72
2023/12/14 07:16:07;;;;;;;31.48;11.77;;;6.60;99.90;;;;;;5041143;28;20037;-73
2023/12/14 07:18:34;;;;;;;31.73;12.25;;;6.60;99.90;;;;;;5048190;28;20029;-73
2023/12/14 07:21:00;;;;;;;31.88;11.52;;;6.60;99.90;;;;;;5048255;28;20048;-73
2023/12/14 07:23:26;;;;;;;27.25;11.35;;;6.60;99.90;;;;;;5034711;28;20024;-73
2023/12/14 07:25:52;;;;;;;32.35;12.25;;;6.60;99.90;;;;;;5048100;28;20029;-73
2023/12/14 07:28:18;;;;;;;26.48;11.25;;;6.60;99.90;;;;;;5048633;28;20021;-72
2023/12/14 07:30:46;;;;;;;25.10;10.80;;;6.50;99.90;;;;;;5048219;28;20061;-72
2023/12/14 07:33:12;;;;;;;24.63;10.40;;;6.50;99.90;;;;;;5048312;28;20021;-72
2023/12/14 07:35:37;;;;;;;27.58;9.70;;;6.50;99.90;;;;;;5047654;28;20104;-72
2023/12/14 07:38:03;;;;;;;26.80;10.02;;;6.50;99.90;;;;;;5042952;28;20060;-72
2023/12/14 07:40:29;;;;;;;26.45;10.32;;;6.40;99.90;;;;;;5047499;28;20032;-72
2023/12/14 07:42:55;;;;;;;26.55;10.10;;;6.40;99.90;;;;;;5038898;28;20036;-72
2023/12/14 07:45:20;;;;;;;27.45;10.13;;;6.40;99.90;;;;;;5047999;28;20028;-72
2023/12/14 07:47:46;;;;;;;26.70;10.25;;;6.40;99.90;;;;;;5047849;28;20027;-72
2023/12/14 07:50:12;;;;;;;24.80;10.38;;;6.40;99.90;;;;;;5045364;28;20140;-73
2023/12/14 07:52:39;;;;;;;27.63;10.60;;;6.40;99.90;;;;;;5046733;28;20017;-72
2023/12/14 07:55:05;;;;;;;24.70;10.30;;;6.30;99.90;;;;;;5036545;28;20072;-73
2023/12/14 07:57:31;;;;;;;25.33;10.23;;;6.30;99.90;;;;;;5048045;28;20060;-72
2023/12/14 07:59:57;;;;;;;23.27;9.25;;;6.30;99.90;;;;;;5047948;28;20107;-72
2023/12/14 08:02:23;;;;;;;21.75;10.43;;;6.30;99.90;;;;;;5047940;28;20017;-72
2023/12/14 08:04:48;;;;;;;21.73;9.75;;;6.30;99.90;;;;;;5039241;28;20058;-72
2023/12/14 08:07:14;;;;;;;26.48;10.02;;;6.30;99.90;;;;;;5047250;28;20388;-73
2023/12/14 08:09:40;;;;;;;24.05;9.73;;;6.30;99.90;;;;;;5047787;28;20025;-72
2023/12/14 08:12:06;;;;;;;25.20;10.50;;;6.30;99.90;;;;;;5044959;28;20025;-73
2023/12/14 08:14:37;;;;;;;24.25;9.80;;;6.20;99.90;;;;;;5047871;28;20029;-73
2023/12/14 08:17:03;;;;;;;23.67;9.60;;;6.20;99.90;;;;;;5047273;28;20668;-72
2023/12/14 08:19:29;;;;;;;24.70;9.23;;;6.20;99.90;;;;;;5047435;28;20078;-72
2023/12/14 08:21:54;;;;;;;20.95;8.57;;;6.20;99.90;;;;;;5044947;28;20025;-73
2023/12/14 08:24:20;;;;;;;22.98;9.98;;;6.20;99.90;;;;;;5039904;28;20037;-73
2023/12/14 08:26:46;;;;;;;23.05;10.07;;;6.20;99.90;;;;;;5042779;28;20496;-72
2023/12/14 08:29:11;;;;;;;26.25;10.25;;;6.20;99.90;;;;;;5045839;28;20013;-73
2023/12/14 08:31:37;;;;;;;25.35;10.15;;;6.20;99.90;;;;;;5045213;28;20021;-73
2023/12/14 08:34:03;;;;;;;20.77;9.25;;;6.20;99.90;;;;;;5037818;28;20478;-72
2023/12/14 08:36:29;;;;;;;18.63;9.18;;;6.20;99.90;;;;;;5045298;28;20438;-72
2023/12/14 08:38:55;;;;;;;24.70;10.65;;;6.20;99.90;;;;;;5041843;28;20017;-72
2023/12/14 08:41:20;;;;;;;23.02;10.77;;;6.20;99.90;;;;;;5047043;28;20558;-73
2023/12/14 08:43:46;;;;;;;21.35;9.93;;;6.20;99.90;;;;;;5043241;28;20620;-73
2023/12/14 08:46:12;;;;;;;18.70;8.38;;;6.20;99.90;;;;;;5039871;28;20096;-73
2023/12/14 08:48:38;;;;;;;24.58;10.25;;;6.20;99.90;;;;;;5046819;28;20043;-73
2023/12/14 08:51:04;;;;;;;24.30;9.73;;;6.20;99.90;;;;;;5046859;28;20039;-72
2023/12/14 08:53:29;;;;;;;20.70;9.65;;;6.30;99.90;;;;;;5040418;28;20025;-73
2023/12/14 08:55:55;;;;;;;24.75;10.15;;;6.30;99.90;;;;;;5046790;28;20032;-72
2023/12/14 08:58:21;;;;;;;20.98;9.70;;;6.20;99.90;;;;;;5046890;28;20033;-73
2023/12/14 09:00:47;;;;;;;24.23;10.27;;;6.20;99.90;;;;;;5046290;28;20029;-73
2023/12/14 09:03:12;;;;;;;20.27;10.18;;;6.20;99.90;;;;;;5044344;28;20052;-73
2023/12/14 09:05:41;;;;;;;26.00;10.50;;;6.20;99.90;;;;;;5037972;28;20132;-73
2023/12/14 09:08:07;;;;;;;22.08;10.18;;;6.20;99.90;;;;;;5042975;28;20104;-72
2023/12/14 09:10:33;;;;;;;23.38;10.40;;;6.30;99.90;;;;;;5045452;28;20167;-73
2023/12/14 09:13:00;;;;;;;25.73;11.02;;;6.20;99.90;;;;;;5046490;28;20017;-72
2023/12/14 09:15:26;;;;;;;20.15;9.32;;;6.30;99.90;;;;;;5046984;28;20035;-73
2023/12/14 09:17:51;;;;;;;23.30;10.32;;;6.30;99.90;;;;;;5046483;28;20684;-75
2023/12/14 09:20:17;;;;;;;27.92;10.63;;;6.30;99.90;;;;;;5047026;28;20090;-72
2023/12/14 09:22:43;;;;;;;22.90;10.77;;;6.20;99.90;;;;;;5044780;28;20414;-72
2023/12/14 09:25:09;;;;;;;21.73;9.50;;;6.30;99.90;;;;;;5047054;28;20017;-73
2023/12/14 09:27:35;;;;;;;23.33;11.25;;;6.30;99.90;;;;;;5046250;28;20032;-72
2023/12/14 09:30:01;;;;;;;22.23;9.77;;;6.30;99.90;;;;;;5034974;28;20025;-73
2023/12/14 09:32:26;;;;;;;24.40;10.23;;;6.30;99.90;;;;;;5044524;28;20032;-72
2023/12/14 09:34:56;;;;;;;24.83;11.00;;;6.30;99.90;;;;;;5046736;28;20036;-73
2023/12/14 09:37:22;;;;;;;25.33;11.68;;;6.30;99.90;;;;;;5031213;28;20551;-73
2023/12/14 09:39:48;;;;;;;27.63;11.20;;;6.30;99.90;;;;;;5041317;28;20040;-72
2023/12/14 09:42:18;;;;;;;30.55;11.07;;;6.30;99.90;;;;;;5046330;28;20021;-72
2023/12/14 09:44:44;;;;;;;24.40;11.63;;;6.30;99.90;;;;;;5046418;28;20445;-73
2023/12/14 09:47:10;;;;;;;28.52;11.43;;;6.30;99.90;;;;;;5046272;28;20029;-72
2023/12/14 09:49:37;;;;;;;26.75;11.88;;;6.30;99.90;;;;;;5046623;28;20021;-73
2023/12/14 09:52:03;;;;;;;24.08;10.90;;;6.30;99.90;;;;;;5046093;28;20071;-73
2023/12/14 09:54:28;;;;;;;25.95;11.65;;;6.30;99.90;;;;;;5046603;28;20603;-72
2023/12/14 09:56:54;;;;;;;25.67;11.30;;;6.30;99.90;;;;;;5044662;28;20060;-72
2023/12/14 09:59:21;;;;;;;24.15;11.00;;;6.30;99.90;;;;;;5047097;28;20016;-73
2023/12/14 10:01:47;;;;;;;20.02;10.02;;;6.30;99.90;;;;;;5045706;28;20053;-73
2023/12/14 10:04:18;;;;;;;26.73;11.60;;;6.30;99.90;;;;;;5046982;28;20021;-73
2023/12/14 10:06:45;;;;;;;26.50;10.77;;;6.30;99.90;;;;;;5032318;28;20386;-72
2023/12/14 10:09:16;;;;;;;24.92;11.65;;;6.30;99.90;;;;;;5046534;28;20333;-72
2023/12/14 10:11:43;;;;;;;22.85;10.57;;;6.30;99.90;;;;;;5044331;28;20509;-72
2023/12/14 10:14:23;;;;;;;22.60;11.23;;;6.30;99.90;;;;;;5049708;28;20104;-72
2023/12/14 10:16:49;;;;;;;27.30;11.40;;;6.30;99.90;;;;;;5049858;28;20017;-72
2023/12/14 10:19:18;;;;;;;23.35;10.82;;;6.30;99.90;;;;;;5048830;28;20125;-73
2023/12/14 10:21:46;;;;;;;24.83;11.02;;;6.30;99.90;;;;;;5047996;28;20021;-73
2023/12/14 10:24:12;;;;;;;25.98;11.02;;;6.40;99.90;;;;;;5050242;28;20028;-72
2023/12/14 10:26:37;;;;;;;24.92;11.30;;;6.30;99.90;;;;;;5049455;28;20017;-72
2023/12/14 10:29:04;;;;;;;27.92;12.23;;;6.30;99.90;;;;;;5050232;28;20162;-73
2023/12/14 10:31:31;;;;;;;30.30;12.55;;;6.30;99.90;;;;;;5047880;28;20917;-73
2023/12/14 10:33:56;;;;;;;27.40;11.82;;;6.30;99.90;;;;;;5049638;28;20390;-72
2023/12/14 10:36:25;;;;;;;27.55;11.48;;;6.30;99.90;;;;;;5049142;28;20041;-73
2023/12/14 10:38:56;;;;;;;24.55;11.93;;;6.30;99.90;;;;;;5049364;28;20024;-73
2023/12/14 10:41:23;;;;;;;23.67;10.73;;;6.30;99.90;;;;;;5038173;28;20040;-73
2023/12/14 10:43:51;;;;;;;27.30;11.18;;;6.30;99.90;;;;;;5045654;28;20020;-72
2023/12/14 10:46:18;;;;;;;28.13;11.93;;;6.30;99.90;;;;;;5049740;28;20096;-73
2023/12/14 10:48:46;;;;;;;26.38;11.85;;;6.30;99.90;;;;;;5049258;28;20024;-72
2023/12/14 10:51:12;;;;;;;28.17;12.25;;;6.30;99.90;;;;;;5048940;28;20032;-73
2023/12/14 10:53:39;;;;;;;22.55;11.35;;;6.30;99.90;;;;;;5048715;28;20021;-73
2023/12/14 10:56:09;;;;;;;30.30;13.13;;;6.40;99.90;;;;;;5048722;28;20025;-73
2023/12/14 10:58:53;;;;;;;32.05;13.55;;;6.30;99.90;;;;;;5047474;28;20021;-73
2023/12/14 11:01:21;;;;;;;27.67;12.65;;;6.30;99.90;;;;;;5048967;28;20104;-73
2023/12/14 11:03:49;;;;;;;32.47;13.52;;;6.40;99.90;;;;;;5046771;28;20048;-73
2023/12/14 11:06:24;;;;;;;34.50;14.20;;;6.30;99.90;;;;;;5048649;28;20108;-73
2023/12/14 11:08:55;;;;;;;35.53;14.00;;;6.40;99.90;;;;;;5047686;28;20112;-72
2023/12/14 11:11:21;;;;;;;29.80;13.18;;;6.40;99.90;;;;;;5045923;28;20107;-73
2023/12/14 11:13:52;;;;;;;27.85;12.95;;;6.40;99.90;;;;;;5048739;28;20367;-73
2023/12/14 11:16:22;;;;;;;;;;;6.40;99.90;;;;;;5047871;28;20025;-73
2023/12/14 11:18:47;;;;;;;27.80;11.77;;;6.40;99.90;;;;;;5048995;28;19908;-73
2023/12/14 11:21:20;;;;;;;29.08;13.25;;;6.50;99.90;;;;;;5048450;28;20067;-73
2023/12/14 11:23:50;;;;;;;32.83;13.95;;;6.50;99.90;;;;;;5034654;28;20044;-73
2023/12/14 11:26:21;;;;;;;27.10;13.05;;;6.40;99.90;;;;;;5048639;28;20388;-73
2023/12/14 11:28:48;;;;;;;31.48;13.68;;;6.50;99.90;;;;;;5048636;28;20009;-73
2023/12/14 11:31:14;;;;;;;28.48;12.55;;;6.40;99.90;;;;;;5044804;28;20486;-73
2023/12/14 11:33:40;;;;;;;30.52;13.70;;;6.40;99.90;;;;;;5047698;28;20029;-73
2023/12/14 11:36:08;;;;;;;28.58;12.65;;;6.50;99.90;;;;;;5045850;28;20394;-72
2023/12/14 11:38:35;;;;;;;32.05;12.82;;;6.50;99.90;;;;;;5043549;28;20068;-73
2023/12/14 11:41:00;;;;;;;25.80;12.18;;;6.50;99.90;;;;;;5048402;28;20075;-73
2023/12/14 11:43:26;;;;;;;29.48;12.68;;;6.50;99.90;;;;;;5048241;28;20017;-73
2023/12/14 11:45:53;;;;;;;31.63;13.50;;;6.50;99.90;;;;;;5046856;28;20127;-73
2023/12/14 11:48:20;;;;;;;29.58;13.70;;;6.50;99.90;;;;;;5047849;28;20029;-73
2023/12/14 11:50:47;;;;;;;30.52;13.35;;;6.50;99.90;;;;;;5046794;28;20742;-72
2023/12/14 11:53:13;;;;;;;30.23;13.77;;;6.40;99.90;;;;;;5047876;28;20427;-72
2023/12/14 11:55:40;;;;;;;27.10;13.30;;;6.40;99.90;;;;;;5048247;28;20021;-73
2023/12/14 11:58:07;;;;;;;33.95;13.60;;;6.50;99.90;;;;;;5043968;28;20043;-72
2023/12/14 12:00:36;;;;;;;29.38;12.77;;;6.50;99.90;;;;;;5044256;28;20017;-73
2023/12/14 12:03:11;;;;;;;27.88;12.40;;;6.50;99.90;;;;;;5041561;28;20093;-73
2023/12/14 12:05:39;;;;;;;25.38;12.20;;;6.50;99.90;;;;;;5046581;28;20407;-73
2023/12/14 12:08:06;;;;;;;30.17;13.40;;;6.50;99.90;;;;;;5047583;28;20044;-73
2023/12/14 12:10:32;;;;;;;31.30;12.93;;;6.40;99.90;;;;;;5048302;28;20028;-73
2023/12/14 12:13:11;;;;;;;30.05;12.77;;;6.50;99.90;;;;;;5047222;28;20131;-73
2023/12/14 12:15:37;;;;;;;28.17;12.88;;;6.50;99.90;;;;;;5046386;28;20032;-73
2023/12/14 12:18:09;;;;;;;27.27;12.00;;;6.50;99.90;;;;;;5045949;28;20029;-72
2023/12/14 12:20:35;;;;;;;35.17;12.82;;;6.50;99.90;;;;;;5043371;28;20035;-73
2023/12/14 12:23:02;;;;;;;31.10;14.10;;;6.50;99.90;;;;;;5044825;28;20112;-73
2023/12/14 12:25:28;;;;;;;32.63;13.60;;;6.50;99.90;;;;;;5039707;28;20032;-73
2023/12/14 12:27:57;;;;;;;26.33;12.95;;;6.60;99.90;;;;;;5046954;28;20112;-73
2023/12/14 12:30:23;;;;;;;27.52;12.77;;;6.60;99.90;;;;;;5038066;28;20037;-73
2023/12/14 12:32:52;;;;;;;27.05;12.75;;;6.60;99.90;;;;;;5045287;28;20025;-73